Startpagina
METAR-TAF:

METAR-TAF

Vliegvelden :

Dar es Salaam, Tanzania

Julius Nyerere International Airport

breedte: 06-52S, lengte: 039-12E, hoogte: 55 m

Actueel weer

Dit bericht is 31 minuten geleden gemaakt, om 04:00 UTC
Wind 5 kt uit het noorden
Temperatuur 26°C
Vochtigheid 89%
Druk 1013 hPa
Zicht 10 km of meer
Weinig wolken op 1500 ft
Gebroken wolken op 7000 ft

METAR: HTDA 140400Z 35005KT 9999 FEW015 BKN070 26/24 Q1013 NOSIG

Tijdstip: 07:31 (04:31 UTC)

Verwachting

Dit bericht is 5 uur en het 31 minuten geleden gemaakt, om 23:00 UTC
Verwachting geldig van 14 om 00 UTC tot 15 om 06 UTC
Wind 10 kt uit het noorden
Zicht 10 km of meer
Verspreide wolken op 1700 ft
Wijzigt naar
van 14 om 04 UTC tot 14 om 07 UTC
Wind 10 kt uit het noordnoordoosten
Gebroken wolken op 2400 ft
Wijzigt naar
van 14 om 19 UTC tot 14 om 22 UTC
Verspreide wolken op 1800 ft

TAF: HTDA 132300Z 1400/1506 35010KT 9999 SCT017 BECMG 1404/1407 02010KT BKN024 BECMG 1419/1422 SCT018

Waarnemingen en weersverwachtingen van meer dan 4000 vliegvelden (METAR en TAF).

De beschikbare stations zijn de gele en rode punten op de kaart.

Ga met uw muis naar het station om de naam te zien.

Klik dan om waarnemingen en weersverwachtingen te zien.

kaart wijzigen: klik op de groene knoppen met een zwart kruis om in te zoomen, op de groene knop met een streepje om uit te zoomen of op de groene pijlen voor aangrenzende kaarten.


METAR-TAF: